sensor_id;sensor_type;location;lat;lon;timestamp;pressure;altitude;pressure_sealevel;temperature;humidity
23643;BME280;11998;55.788;37.572;2022-09-02T00:01:01;98495.69;;;9.27;100.00
23643;BME280;11998;55.788;37.572;2022-09-02T00:02:02;98493.97;;;9.26;100.00
23643;BME280;11998;55.788;37.572;2022-09-02T00:03:03;98506.06;;;9.33;100.00
23643;BME280;11998;55.788;37.572;2022-09-02T00:04:14;98507.78;;;9.34;100.00
23643;BME280;11998;55.788;37.572;2022-09-02T00:05:16;98496.25;;;9.36;100.00
23643;BME280;11998;55.788;37.572;2022-09-02T00:06:17;98489.34;;;9.32;100.00
23643;BME280;11998;55.788;37.572;2022-09-02T00:07:18;98503.38;;;9.34;100.00
23643;BME280;11998;55.788;37.572;2022-09-02T00:08:18;98500.56;;;9.39;100.00
23643;BME280;11998;55.788;37.572;2022-09-02T00:09:21;98510.28;;;9.38;100.00
23643;BME280;11998;55.788;37.572;2022-09-02T00:10:22;98506.72;;;9.39;100.00
23643;BME280;11998;55.788;37.572;2022-09-02T00:11:25;98497.81;;;9.42;100.00
23643;BME280;11998;55.788;37.572;2022-09-02T00:12:29;98504.00;;;9.41;100.00
23643;BME280;11998;55.788;37.572;2022-09-02T00:13:30;98507.69;;;9.37;100.00
23643;BME280;11998;55.788;37.572;2022-09-02T00:14:35;98502.41;;;9.37;100.00
23643;BME280;11998;55.788;37.572;2022-09-02T00:15:36;98507.56;;;9.40;100.00
23643;BME280;11998;55.788;37.572;2022-09-02T00:16:38;98496.06;;;9.43;100.00
23643;BME280;11998;55.788;37.572;2022-09-02T00:17:38;98504.75;;;9.46;100.00
23643;BME280;11998;55.788;37.572;2022-09-02T00:18:39;98498.53;;;9.47;100.00
23643;BME280;11998;55.788;37.572;2022-09-02T00:19:40;98505.75;;;9.42;100.00
23643;BME280;11998;55.788;37.572;2022-09-02T00:20:43;98488.13;;;9.43;100.00
23643;BME280;11998;55.788;37.572;2022-09-02T00:21:44;98503.31;;;9.36;100.00
23643;BME280;11998;55.788;37.572;2022-09-02T00:22:45;98502.41;;;9.37;100.00
23643;BME280;11998;55.788;37.572;2022-09-02T00:23:46;98498.94;;;9.35;100.00
23643;BME280;11998;55.788;37.572;2022-09-02T00:24:47;98497.50;;;9.25;100.00
23643;BME280;11998;55.788;37.572;2022-09-02T00:25:47;98498.44;;;9.24;100.00
23643;BME280;11998;55.788;37.572;2022-09-02T00:26:48;98501.81;;;9.27;100.00
23643;BME280;11998;55.788;37.572;2022-09-02T00:27:49;98504.53;;;9.26;100.00
23643;BME280;11998;55.788;37.572;2022-09-02T00:28:49;98505.28;;;9.29;100.00
23643;BME280;11998;55.788;37.572;2022-09-02T00:29:50;98507.69;;;9.37;100.00
23643;BME280;11998;55.788;37.572;2022-09-02T00:30:50;98506.66;;;9.41;100.00
23643;BME280;11998;55.788;37.572;2022-09-02T00:31:52;98511.88;;;9.44;100.00
23643;BME280;11998;55.788;37.572;2022-09-02T00:32:53;98509.97;;;9.48;100.00
23643;BME280;11998;55.788;37.572;2022-09-02T00:33:53;98503.94;;;9.44;100.00
23643;BME280;11998;55.788;37.572;2022-09-02T00:34:54;98510.09;;;9.45;100.00
23643;BME280;11998;55.788;37.572;2022-09-02T00:35:59;98510.09;;;9.45;100.00
23643;BME280;11998;55.788;37.572;2022-09-02T00:37:00;98512.69;;;9.46;100.00
23643;BME280;11998;55.788;37.572;2022-09-02T00:38:01;98510.09;;;9.45;100.00
23643;BME280;11998;55.788;37.572;2022-09-02T00:39:03;98509.22;;;9.44;100.00
23643;BME280;11998;55.788;37.572;2022-09-02T00:40:05;98508.19;;;9.48;100.00
23643;BME280;11998;55.788;37.572;2022-09-02T00:41:08;98501.31;;;9.44;100.00
23643;BME280;11998;55.788;37.572;2022-09-02T00:42:09;98499.41;;;9.48;100.00
23643;BME280;11998;55.788;37.572;2022-09-02T00:43:11;98506.19;;;9.55;100.00
23643;BME280;11998;55.788;37.572;2022-09-02T00:44:15;98506.19;;;9.55;100.00
23643;BME280;11998;55.788;37.572;2022-09-02T00:45:18;98508.72;;;9.59;100.00
23643;BME280;11998;55.788;37.572;2022-09-02T00:46:21;98503.53;;;9.56;100.00
23643;BME280;11998;55.788;37.572;2022-09-02T00:47:21;98500.06;;;9.54;100.00
23643;BME280;11998;55.788;37.572;2022-09-02T00:48:22;98500.06;;;9.54;100.00
23643;BME280;11998;55.788;37.572;2022-09-02T00:49:26;98497.63;;;9.48;100.00
23643;BME280;11998;55.788;37.572;2022-09-02T00:50:29;98504.63;;;9.49;100.00
23643;BME280;11998;55.788;37.572;2022-09-02T00:51:36;98494.22;;;9.45;100.00
23643;BME280;11998;55.788;37.572;2022-09-02T00:53:07;98506.81;;;9.36;100.00
23643;BME280;11998;55.788;37.572;2022-09-02T00:54:10;98499.91;;;9.32;100.00
23643;BME280;11998;55.788;37.572;2022-09-02T00:55:24;98502.78;;;9.25;100.00
23643;BME280;11998;55.788;37.572;2022-09-02T00:56:27;98502.16;;;9.18;100.00
23643;BME280;11998;55.788;37.572;2022-09-02T00:57:38;98508.31;;;9.17;100.00
23643;BME280;11998;55.788;37.572;2022-09-02T00:58:40;98505.59;;;9.20;100.00
23643;BME280;11998;55.788;37.572;2022-09-02T00:59:49;98511.53;;;9.27;100.00
23643;BME280;11998;55.788;37.572;2022-09-02T01:00:54;98506.25;;;9.27;100.00
23643;BME280;11998;55.788;37.572;2022-09-02T01:01:56;98503.66;;;9.25;100.00
23643;BME280;11998;55.788;37.572;2022-09-02T01:03:01;98512.28;;;9.32;100.00
23643;BME280;11998;55.788;37.572;2022-09-02T01:04:02;98513.03;;;9.35;100.00
23643;BME280;11998;55.788;37.572;2022-09-02T01:05:05;98514.69;;;9.38;100.00
23643;BME280;11998;55.788;37.572;2022-09-02T01:06:06;98509.31;;;9.41;100.00
23643;BME280;11998;55.788;37.572;2022-09-02T01:07:07;98506.78;;;9.38;100.00
23643;BME280;11998;55.788;37.572;2022-09-02T01:08:08;98508.44;;;9.40;100.00
23643;BME280;11998;55.788;37.572;2022-09-02T01:09:12;98513.19;;;9.31;100.00
23643;BME280;11998;55.788;37.572;2022-09-02T01:10:18;98505.97;;;9.36;100.00
23643;BME280;11998;55.788;37.572;2022-09-02T01:11:19;98506.81;;;9.36;100.00
23643;BME280;11998;55.788;37.572;2022-09-02T01:12:21;98510.28;;;9.38;100.00
23643;BME280;11998;55.788;37.572;2022-09-02T01:13:25;98507.97;;;9.28;100.00
23643;BME280;11998;55.788;37.572;2022-09-02T01:14:26;98506.19;;;9.28;100.00
23643;BME280;11998;55.788;37.572;2022-09-02T01:15:28;98509.00;;;9.24;100.00
23643;BME280;11998;55.788;37.572;2022-09-02T01:16:37;98499.25;;;9.26;100.00
23643;BME280;11998;55.788;37.572;2022-09-02T01:17:42;98493.31;;;9.18;100.00
23643;BME280;11998;55.788;37.572;2022-09-02T01:18:49;98500.25;;;9.22;100.00
23643;BME280;11998;55.788;37.572;2022-09-02T01:19:54;98503.00;;;9.19;100.00
23643;BME280;11998;55.788;37.572;2022-09-02T01:20:57;98506.47;;;9.21;100.00
23643;BME280;11998;55.788;37.572;2022-09-02T01:22:00;98504.75;;;9.20;100.00
23643;BME280;11998;55.788;37.572;2022-09-02T01:23:01;98508.47;;;9.12;100.00
23643;BME280;11998;55.788;37.572;2022-09-02T01:24:01;98508.69;;;9.06;100.00
23643;BME280;11998;55.788;37.572;2022-09-02T01:25:10;98502.22;;;9.15;100.00
23643;BME280;11998;55.788;37.572;2022-09-02T01:26:12;98511.16;;;9.11;100.00
23643;BME280;11998;55.788;37.572;2022-09-02T01:27:16;98497.16;;;9.09;100.00
23643;BME280;11998;55.788;37.572;2022-09-02T01:28:17;98503.28;;;9.09;100.00
23643;BME280;11998;55.788;37.572;2022-09-02T01:29:18;98512.25;;;9.05;100.00
23643;BME280;11998;55.788;37.572;2022-09-02T01:30:22;98505.13;;;9.07;100.00
23643;BME280;11998;55.788;37.572;2022-09-02T01:31:23;98506.84;;;9.08;100.00
23643;BME280;11998;55.788;37.572;2022-09-02T01:32:25;98504.25;;;9.07;100.00
23643;BME280;11998;55.788;37.572;2022-09-02T01:33:26;98513.75;;;9.12;100.00
23643;BME280;11998;55.788;37.572;2022-09-02T01:34:27;98512.03;;;9.11;100.00
23643;BME280;11998;55.788;37.572;2022-09-02T01:35:28;98518.19;;;9.12;100.00
23643;BME280;11998;55.788;37.572;2022-09-02T01:36:29;98512.84;;;9.13;100.00
23643;BME280;11998;55.788;37.572;2022-09-02T01:37:29;98513.75;;;9.12;100.00
23643;BME280;11998;55.788;37.572;2022-09-02T01:38:31;98506.91;;;9.07;100.00
23643;BME280;11998;55.788;37.572;2022-09-02T01:39:32;98511.31;;;9.06;100.00
23643;BME280;11998;55.788;37.572;2022-09-02T01:40:33;98496.41;;;9.05;100.00
23643;BME280;11998;55.788;37.572;2022-09-02T01:41:33;98513.97;;;9.06;100.00
23643;BME280;11998;55.788;37.572;2022-09-02T01:42:34;98508.69;;;9.06;100.00
23643;BME280;11998;55.788;37.572;2022-09-02T01:43:35;98510.47;;;9.04;100.00
23643;BME280;11998;55.788;37.572;2022-09-02T01:44:36;98508.84;;;9.00;100.00
23643;BME280;11998;55.788;37.572;2022-09-02T01:45:45;98507.13;;;8.99;100.00
23643;BME280;11998;55.788;37.572;2022-09-02T01:46:46;98511.44;;;9.02;100.00
23643;BME280;11998;55.788;37.572;2022-09-02T01:47:47;98509.94;;;8.95;100.00
23643;BME280;11998;55.788;37.572;2022-09-02T01:48:47;98507.25;;;8.96;100.00
23643;BME280;11998;55.788;37.572;2022-09-02T01:49:49;98517.81;;;8.96;100.00
23643;BME280;11998;55.788;37.572;2022-09-02T01:50:54;98511.56;;;8.99;100.00
23643;BME280;11998;55.788;37.572;2022-09-02T01:51:55;98519.38;;;9.02;100.00
23643;BME280;11998;55.788;37.572;2022-09-02T01:52:57;98514.16;;;9.00;100.00
23643;BME280;11998;55.788;37.572;2022-09-02T01:53:58;98509.72;;;9.01;100.00
23643;BME280;11998;55.788;37.572;2022-09-02T01:54:58;98510.69;;;8.98;100.00
23643;BME280;11998;55.788;37.572;2022-09-02T01:55:59;98515.00;;;9.01;100.00
23643;BME280;11998;55.788;37.572;2022-09-02T01:57:00;98512.53;;;8.96;100.00
23643;BME280;11998;55.788;37.572;2022-09-02T01:58:01;98517.00;;;8.94;100.00
23643;BME280;11998;55.788;37.572;2022-09-02T01:59:02;98507.41;;;8.90;100.00
23643;BME280;11998;55.788;37.572;2022-09-02T02:00:05;98514.34;;;8.94;100.00
23643;BME280;11998;55.788;37.572;2022-09-02T02:01:06;98514.34;;;8.94;100.00
23643;BME280;11998;55.788;37.572;2022-09-02T02:02:07;98507.34;;;8.92;100.00
23643;BME280;11998;55.788;37.572;2022-09-02T02:03:08;98521.34;;;8.95;100.00
23643;BME280;11998;55.788;37.572;2022-09-02T02:04:08;98515.97;;;8.98;100.00
23643;BME280;11998;55.788;37.572;2022-09-02T02:05:09;98521.97;;;9.03;100.00
23643;BME280;11998;55.788;37.572;2022-09-02T02:06:12;98520.94;;;9.09;100.00
23643;BME280;11998;55.788;37.572;2022-09-02T02:07:15;98518.28;;;9.09;100.00
23643;BME280;11998;55.788;37.572;2022-09-02T02:08:16;98522.69;;;9.08;100.00
23643;BME280;11998;55.788;37.572;2022-09-02T02:09:18;98527.06;;;9.09;100.00
23643;BME280;11998;55.788;37.572;2022-09-02T02:10:19;98516.50;;;9.09;100.00
23643;BME280;11998;55.788;37.572;2022-09-02T02:11:23;98521.72;;;9.11;100.00
23643;BME280;11998;55.788;37.572;2022-09-02T02:12:24;98517.22;;;9.15;100.00
23643;BME280;11998;55.788;37.572;2022-09-02T02:13:24;98524.22;;;9.16;100.00
23643;BME280;11998;55.788;37.572;2022-09-02T02:14:25;98522.38;;;9.18;100.00
23643;BME280;11998;55.788;37.572;2022-09-02T02:15:25;98528.69;;;9.13;100.00
23643;BME280;11998;55.788;37.572;2022-09-02T02:16:26;98518.22;;;9.10;100.00
23643;BME280;11998;55.788;37.572;2022-09-02T02:17:27;98518.94;;;9.16;100.00
23643;BME280;11998;55.788;37.572;2022-09-02T02:18:27;98516.56;;;9.08;100.00
23643;BME280;11998;55.788;37.572;2022-09-02T02:19:29;98516.59;;;9.06;100.00
23643;BME280;11998;55.788;37.572;2022-09-02T02:20:29;98521.78;;;9.09;100.00
23643;BME280;11998;55.788;37.572;2022-09-02T02:21:30;98521.72;;;9.11;100.00
23643;BME280;11998;55.788;37.572;2022-09-02T02:22:31;98519.03;;;9.12;100.00
23643;BME280;11998;55.788;37.572;2022-09-02T02:23:32;98523.56;;;9.09;100.00
23643;BME280;11998;55.788;37.572;2022-09-02T02:24:33;98527.13;;;9.08;100.00
23643;BME280;11998;55.788;37.572;2022-09-02T02:25:33;98525.34;;;9.08;100.00
23643;BME280;11998;55.788;37.572;2022-09-02T02:26:34;98527.13;;;9.08;100.00
23643;BME280;11998;55.788;37.572;2022-09-02T02:27:35;98530.72;;;9.05;100.00
23643;BME280;11998;55.788;37.572;2022-09-02T02:28:35;98526.47;;;9.00;100.00
23643;BME280;11998;55.788;37.572;2022-09-02T02:29:36;98527.41;;;8.99;100.00
23643;BME280;11998;55.788;37.572;2022-09-02T02:30:37;98524.75;;;8.99;100.00
23643;BME280;11998;55.788;37.572;2022-09-02T02:31:37;98531.72;;;9.01;100.00
23643;BME280;11998;55.788;37.572;2022-09-02T02:32:38;98533.44;;;9.02;100.00
23643;BME280;11998;55.788;37.572;2022-09-02T02:33:39;98533.44;;;9.02;100.00
23643;BME280;11998;55.788;37.572;2022-09-02T02:34:40;98534.25;;;9.06;100.00
23643;BME280;11998;55.788;37.572;2022-09-02T02:35:41;98524.59;;;9.03;100.00
23643;BME280;11998;55.788;37.572;2022-09-02T02:36:42;98536.03;;;9.04;100.00
23643;BME280;11998;55.788;37.572;2022-09-02T02:37:43;98533.44;;;9.02;100.00
23643;BME280;11998;55.788;37.572;2022-09-02T02:38:45;98536.91;;;9.04;100.00
23643;BME280;11998;55.788;37.572;2022-09-02T02:39:46;98536.03;;;9.04;100.00
23643;BME280;11998;55.788;37.572;2022-09-02T02:40:47;98529.81;;;9.06;100.00
23643;BME280;11998;55.788;37.572;2022-09-02T02:41:47;98540.19;;;9.12;100.00
23643;BME280;11998;55.788;37.572;2022-09-02T02:42:48;98535.69;;;9.15;100.00
23643;BME280;11998;55.788;37.572;2022-09-02T02:43:52;98536.22;;;9.26;100.00
23643;BME280;11998;55.788;37.572;2022-09-02T02:44:53;98535.41;;;9.24;100.00
23643;BME280;11998;55.788;37.572;2022-09-02T02:45:54;98532.78;;;9.24;100.00
23643;BME280;11998;55.788;37.572;2022-09-02T02:46:54;98545.88;;;9.27;100.00
23643;BME280;11998;55.788;37.572;2022-09-02T02:47:55;98545.06;;;9.25;100.00
23643;BME280;11998;55.788;37.572;2022-09-02T02:48:58;98540.94;;;9.16;100.00
23643;BME280;11998;55.788;37.572;2022-09-02T02:49:59;98547.19;;;9.13;100.00
23643;BME280;11998;55.788;37.572;2022-09-02T02:51:00;98540.28;;;9.09;100.00
23643;BME280;11998;55.788;37.572;2022-09-02T02:52:01;98548.91;;;9.15;100.00
23643;BME280;11998;55.788;37.572;2022-09-02T02:53:02;98532.41;;;9.08;100.00
23643;BME280;11998;55.788;37.572;2022-09-02T02:54:03;98540.94;;;9.16;100.00
23643;BME280;11998;55.788;37.572;2022-09-02T02:55:04;98547.28;;;9.10;100.00
23643;BME280;11998;55.788;37.572;2022-09-02T02:56:06;98547.28;;;9.10;100.00
23643;BME280;11998;55.788;37.572;2022-09-02T02:57:07;98538.56;;;9.08;100.00
23643;BME280;11998;55.788;37.572;2022-09-02T02:58:09;98545.56;;;9.09;100.00
23643;BME280;11998;55.788;37.572;2022-09-02T02:59:09;98539.53;;;9.06;100.00
23643;BME280;11998;55.788;37.572;2022-09-02T03:00:18;98546.53;;;9.07;100.00
23643;BME280;11998;55.788;37.572;2022-09-02T03:01:20;98538.72;;;9.02;100.00
23643;BME280;11998;55.788;37.572;2022-09-02T03:02:20;98544.09;;;8.99;100.00
23643;BME280;11998;55.788;37.572;2022-09-02T03:03:21;98544.00;;;9.02;100.00
23643;BME280;11998;55.788;37.572;2022-09-02T03:04:21;98545.56;;;9.09;100.00
23643;BME280;11998;55.788;37.572;2022-09-02T03:05:22;98544.59;;;9.12;100.00
23643;BME280;11998;55.788;37.572;2022-09-02T03:06:23;98554.41;;;9.08;100.00
23643;BME280;11998;55.788;37.572;2022-09-02T03:07:24;98545.66;;;9.06;100.00
23643;BME280;11998;55.788;37.572;2022-09-02T03:08:25;98552.56;;;9.10;100.00
23643;BME280;11998;55.788;37.572;2022-09-02T03:09:26;98552.56;;;9.10;100.00
23643;BME280;11998;55.788;37.572;2022-09-02T03:10:26;98561.13;;;9.19;100.00
23643;BME280;11998;55.788;37.572;2022-09-02T03:11:27;98556.56;;;9.24;100.00
23643;BME280;11998;55.788;37.572;2022-09-02T03:12:28;98559.19;;;9.24;100.00
23643;BME280;11998;55.788;37.572;2022-09-02T03:13:31;98564.31;;;9.28;100.00
23643;BME280;11998;55.788;37.572;2022-09-02T03:14:32;98566.09;;;9.28;100.00
23643;BME280;11998;55.788;37.572;2022-09-02T03:15:33;98564.38;;;9.27;100.00
23643;BME280;11998;55.788;37.572;2022-09-02T03:16:35;98559.91;;;9.29;100.00
23643;BME280;11998;55.788;37.572;2022-09-02T03:17:35;98557.47;;;9.23;100.00
23643;BME280;11998;55.788;37.572;2022-09-02T03:18:37;98569.88;;;9.21;100.00
23643;BME280;11998;55.788;37.572;2022-09-02T03:19:37;98565.56;;;9.18;100.00
23643;BME280;11998;55.788;37.572;2022-09-02T03:20:39;98569.06;;;9.17;100.00
23643;BME280;11998;55.788;37.572;2022-09-02T03:21:41;98564.66;;;9.18;100.00
23643;BME280;11998;55.788;37.572;2022-09-02T03:22:43;98570.03;;;9.15;100.00
23643;BME280;11998;55.788;37.572;2022-09-02T03:23:45;98566.50;;;9.16;100.00
23643;BME280;11998;55.788;37.572;2022-09-02T03:24:46;98569.88;;;9.21;100.00
23643;BME280;11998;55.788;37.572;2022-09-02T03:25:47;98573.50;;;9.17;100.00
23643;BME280;11998;55.788;37.572;2022-09-02T03:26:47;98567.28;;;9.19;100.00
23643;BME280;11998;55.788;37.572;2022-09-02T03:27:49;98571.69;;;9.19;100.00
23643;BME280;11998;55.788;37.572;2022-09-02T03:28:49;98576.88;;;9.22;100.00
23643;BME280;11998;55.788;37.572;2022-09-02T03:29:51;98574.34;;;9.19;100.00
23643;BME280;11998;55.788;37.572;2022-09-02T03:30:51;98562.94;;;9.17;100.00
23643;BME280;11998;55.788;37.572;2022-09-02T03:31:52;98569.78;;;9.24;100.00
23643;BME280;11998;55.788;37.572;2022-09-02T03:32:54;98569.88;;;9.21;100.00
23643;BME280;11998;55.788;37.572;2022-09-02T03:33:55;98573.22;;;9.26;100.00
23643;BME280;11998;55.788;37.572;2022-09-02T03:34:56;98567.75;;;9.32;100.00
23643;BME280;11998;55.788;37.572;2022-09-02T03:35:56;98567.84;;;9.29;100.00
23643;BME280;11998;55.788;37.572;2022-09-02T03:36:57;98576.69;;;9.28;100.00
23643;BME280;11998;55.788;37.572;2022-09-02T03:37:59;98571.31;;;9.31;100.00
23643;BME280;11998;55.788;37.572;2022-09-02T03:39:02;98571.00;;;9.40;100.00
23643;BME280;11998;55.788;37.572;2022-09-02T03:40:05;98572.72;;;9.41;100.00
23643;BME280;11998;55.788;37.572;2022-09-02T03:41:05;98575.34;;;9.43;100.00
23643;BME280;11998;55.788;37.572;2022-09-02T03:42:06;98576.22;;;9.43;100.00
23643;BME280;11998;55.788;37.572;2022-09-02T03:43:07;98577.84;;;9.47;100.00
23643;BME280;11998;55.788;37.572;2022-09-02T03:44:09;98580.59;;;9.44;100.00
23643;BME280;11998;55.788;37.572;2022-09-02T03:45:11;98570.63;;;9.52;100.00
23643;BME280;11998;55.788;37.572;2022-09-02T03:46:14;98568.59;;;9.60;100.00
23643;BME280;11998;55.788;37.572;2022-09-02T03:47:14;98578.16;;;9.64;100.00
23643;BME280;11998;55.788;37.572;2022-09-02T03:48:16;98569.25;;;9.67;100.00
23643;BME280;11998;55.788;37.572;2022-09-02T03:49:17;98571.94;;;9.65;100.00
23643;BME280;11998;55.788;37.572;2022-09-02T03:50:24;98575.22;;;9.74;100.00
23643;BME280;11998;55.788;37.572;2022-09-02T03:51:26;98577.03;;;9.71;100.00
23643;BME280;11998;55.788;37.572;2022-09-02T03:52:26;98576.38;;;9.65;100.00
23643;BME280;11998;55.788;37.572;2022-09-02T03:53:27;98582.84;;;9.56;100.00
23643;BME280;11998;55.788;37.572;2022-09-02T03:54:28;98581.19;;;9.52;100.00
23643;BME280;11998;55.788;37.572;2022-09-02T03:55:30;98573.25;;;9.52;100.00
23643;BME280;11998;55.788;37.572;2022-09-02T03:56:31;98584.56;;;9.57;100.00
23643;BME280;11998;55.788;37.572;2022-09-02T03:57:31;98586.41;;;9.54;100.00
23643;BME280;11998;55.788;37.572;2022-09-02T03:58:33;98576.81;;;9.51;100.00
23643;BME280;11998;55.788;37.572;2022-09-02T03:59:34;98590.91;;;9.52;100.00
23643;BME280;11998;55.788;37.572;2022-09-02T04:00:34;98580.44;;;9.49;100.00
23643;BME280;11998;55.788;37.572;2022-09-02T04:01:36;98584.00;;;9.48;100.00
23643;BME280;11998;55.788;37.572;2022-09-02T04:02:37;98585.78;;;9.47;100.00
23643;BME280;11998;55.788;37.572;2022-09-02T04:03:38;98581.50;;;9.43;100.00
23643;BME280;11998;55.788;37.572;2022-09-02T04:04:38;98593.69;;;9.47;100.00
23643;BME280;11998;55.788;37.572;2022-09-02T04:05:39;98585.13;;;9.39;100.00
23643;BME280;11998;55.788;37.572;2022-09-02T04:06:39;98599.25;;;9.38;100.00
23643;BME280;11998;55.788;37.572;2022-09-02T04:07:40;98594.78;;;9.40;100.00
23643;BME280;11998;55.788;37.572;2022-09-02T04:08:41;98593.97;;;9.38;100.00
23643;BME280;11998;55.788;37.572;2022-09-02T04:09:45;98594.84;;;9.38;100.00
23643;BME280;11998;55.788;37.572;2022-09-02T04:10:46;98591.38;;;9.36;100.00
23643;BME280;11998;55.788;37.572;2022-09-02T04:11:46;98592.16;;;9.40;100.00
23643;BME280;11998;55.788;37.572;2022-09-02T04:12:48;98600.59;;;9.51;100.00
23643;BME280;11998;55.788;37.572;2022-09-02T04:13:50;98592.94;;;9.44;100.00
23643;BME280;11998;55.788;37.572;2022-09-02T04:14:51;98596.28;;;9.49;100.00
23643;BME280;11998;55.788;37.572;2022-09-02T04:15:52;98605.88;;;9.51;100.00
23643;BME280;11998;55.788;37.572;2022-09-02T04:16:52;98597.84;;;9.54;100.00
23643;BME280;11998;55.788;37.572;2022-09-02T04:17:53;98605.41;;;9.66;100.00
23643;BME280;11998;55.788;37.572;2022-09-02T04:18:57;98604.34;;;9.72;100.00
23643;BME280;11998;55.788;37.572;2022-09-02T04:19:59;98599.28;;;9.64;100.00
23643;BME280;11998;55.788;37.572;2022-09-02T04:21:00;98619.53;;;9.65;100.00
23643;BME280;11998;55.788;37.572;2022-09-02T04:22:00;98600.91;;;9.70;100.00
23643;BME280;11998;55.788;37.572;2022-09-02T04:23:01;98597.47;;;9.66;100.00
23643;BME280;11998;55.788;37.572;2022-09-02T04:24:04;98608.66;;;9.75;100.00
23643;BME280;11998;55.788;37.572;2022-09-02T04:25:05;98613.78;;;9.79;100.00
23643;BME280;11998;55.788;37.572;2022-09-02T04:26:09;98606.66;;;9.83;100.00
23643;BME280;11998;55.788;37.572;2022-09-02T04:27:10;98611.78;;;9.87;100.00
23643;BME280;11998;55.788;37.572;2022-09-02T04:28:11;98609.34;;;9.81;100.00
23643;BME280;11998;55.788;37.572;2022-09-02T04:29:12;98606.66;;;9.83;100.00
23643;BME280;11998;55.788;37.572;2022-09-02T04:30:13;98607.34;;;9.88;100.00
23643;BME280;11998;55.788;37.572;2022-09-02T04:31:19;98609.69;;;9.97;100.00
23643;BME280;11998;55.788;37.572;2022-09-02T04:32:20;98597.28;;;9.99;100.00
23643;BME280;11998;55.788;37.572;2022-09-02T04:33:20;98600.34;;;9.87;100.00
23643;BME280;11998;55.788;37.572;2022-09-02T04:34:21;98608.78;;;9.98;100.00
23643;BME280;11998;55.788;37.572;2022-09-02T04:35:22;98607.84;;;9.99;100.00
23643;BME280;11998;55.788;37.572;2022-09-02T04:36:23;98620.47;;;9.91;100.00
23643;BME280;11998;55.788;37.572;2022-09-02T04:37:24;98614.88;;;10.00;100.00
23643;BME280;11998;55.788;37.572;2022-09-02T04:38:24;98600.53;;;10.07;100.00
23643;BME280;11998;55.788;37.572;2022-09-02T04:39:25;98611.25;;;10.02;100.00
23643;BME280;11998;55.788;37.572;2022-09-02T04:40:25;98613.81;;;10.06;100.00
23643;BME280;11998;55.788;37.572;2022-09-02T04:41:28;98609.34;;;10.08;100.00
23643;BME280;11998;55.788;37.572;2022-09-02T04:42:29;98620.91;;;10.05;100.00
23643;BME280;11998;55.788;37.572;2022-09-02T04:43:30;98611.94;;;10.09;100.00
23643;BME280;11998;55.788;37.572;2022-09-02T04:44:31;98628.41;;;10.17;100.00
23643;BME280;11998;55.788;37.572;2022-09-02T04:45:31;98619.75;;;10.12;100.00
23643;BME280;11998;55.788;37.572;2022-09-02T04:46:32;98621.22;;;10.21;100.00
23643;BME280;11998;55.788;37.572;2022-09-02T04:47:32;98617.91;;;10.14;100.00
23643;BME280;11998;55.788;37.572;2022-09-02T04:48:34;98609.41;;;10.06;100.00
23643;BME280;11998;55.788;37.572;2022-09-02T04:49:35;98616.19;;;10.13;100.00
23643;BME280;11998;55.788;37.572;2022-09-02T04:50:38;98615.91;;;10.22;100.00
23643;BME280;11998;55.788;37.572;2022-09-02T04:51:39;98618.56;;;10.22;100.00
23643;BME280;11998;55.788;37.572;2022-09-02T04:52:39;98615.78;;;9.99;100.00
23643;BME280;11998;55.788;37.572;2022-09-02T04:53:40;98617.13;;;9.86;100.00
23643;BME280;11998;55.788;37.572;2022-09-02T04:54:41;98622.56;;;9.81;100.00
23643;BME280;11998;55.788;37.572;2022-09-02T04:55:42;98628.00;;;9.77;100.00
23643;BME280;11998;55.788;37.572;2022-09-02T04:56:42;98622.69;;;9.77;100.00
23643;BME280;11998;55.788;37.572;2022-09-02T04:57:43;98624.25;;;9.84;100.00
23643;BME280;11998;55.788;37.572;2022-09-02T04:58:44;98631.88;;;9.93;100.00
23643;BME280;11998;55.788;37.572;2022-09-02T04:59:44;98632.63;;;9.96;100.00
23643;BME280;11998;55.788;37.572;2022-09-02T05:00:45;98638.28;;;9.86;100.00
23643;BME280;11998;55.788;37.572;2022-09-02T05:01:46;98638.06;;;9.92;100.00
23643;BME280;11998;55.788;37.572;2022-09-02T05:02:47;98629.13;;;9.96;100.00
23643;BME280;11998;55.788;37.572;2022-09-02T05:03:48;98634.41;;;9.96;100.00
23643;BME280;11998;55.788;37.572;2022-09-02T05:04:49;98647.75;;;9.93;100.00
23643;BME280;11998;55.788;37.572;2022-09-02T05:06:04;98639.59;;;9.99;100.00
23643;BME280;11998;55.788;37.572;2022-09-02T05:07:05;98645.88;;;9.96;100.00
23643;BME280;11998;55.788;37.572;2022-09-02T05:08:05;98641.22;;;10.03;100.00
23643;BME280;11998;55.788;37.572;2022-09-02T05:09:06;98647.81;;;10.16;100.00
23643;BME280;11998;55.788;37.572;2022-09-02T05:10:08;98631.78;;;10.22;100.00
23643;BME280;11998;55.788;37.572;2022-09-02T05:11:12;98636.97;;;10.25;100.00
23643;BME280;11998;55.788;37.572;2022-09-02T05:12:13;98638.50;;;10.33;100.00
23643;BME280;11998;55.788;37.572;2022-09-02T05:13:14;98645.31;;;10.40;100.00
23643;BME280;11998;55.788;37.572;2022-09-02T05:14:14;98636.88;;;10.28;100.00
23643;BME280;11998;55.788;37.572;2022-09-02T05:15:15;98636.97;;;10.25;100.00
23643;BME280;11998;55.788;37.572;2022-09-02T05:16:18;98648.47;;;10.24;100.00
23643;BME280;11998;55.788;37.572;2022-09-02T05:17:19;98650.34;;;10.21;100.00
23643;BME280;11998;55.788;37.572;2022-09-02T05:18:19;98655.81;;;10.15;100.00
23643;BME280;11998;55.788;37.572;2022-09-02T05:19:21;98645.28;;;10.13;100.00
23643;BME280;11998;55.788;37.572;2022-09-02T05:20:25;98653.34;;;10.10;100.00
23643;BME280;11998;55.788;37.572;2022-09-02T05:21:27;98646.50;;;10.05;100.00
23643;BME280;11998;55.788;37.572;2022-09-02T05:22:28;98649.88;;;10.08;100.00